Time;durP1;ratioP1;P1;durP2;ratioP2;P2;SDS_P1;SDS_P2;PMS_P1;PMS_P2;Temp;Humidity;BMP_temperature;BMP_pressure;BME280_temperature;BME280_humidity;BME280_pressure;Samples;Min_cycle;Max_cycle;Signal;HPM_P1;HPM_P2
2022/12/03 00:01:52;;;;;;;66.75;24.80;;;2.00;90.20;;;;;;4965892;28;20038;-67
2022/12/03 00:04:18;;;;;;;66.70;25.92;;;1.90;90.20;;;;;;4969818;28;20122;-66
2022/12/03 00:06:44;;;;;;;70.80;26.13;;;1.90;90.00;;;;;;4971775;28;20027;-67
2022/12/03 00:09:10;;;;;;;63.67;25.15;;;1.90;90.40;;;;;;4965453;28;20093;-67
2022/12/03 00:11:35;;;;;;;70.32;24.83;;;1.80;90.30;;;;;;4970971;28;20065;-67
2022/12/03 00:14:01;;;;;;;72.15;27.15;;;1.90;90.30;;;;;;4965413;28;20565;-67
2022/12/03 00:16:27;;;;;;;73.93;25.75;;;1.70;90.40;;;;;;4974537;28;20648;-67
2022/12/03 00:18:53;;;;;;;72.10;25.23;;;1.80;90.80;;;;;;4968930;28;20462;-67
2022/12/03 00:21:18;;;;;;;70.75;24.75;;;1.90;91.00;;;;;;4966718;28;20061;-68
2022/12/03 00:23:44;;;;;;;64.70;24.80;;;1.80;90.30;;;;;;4968417;28;20034;-67
2022/12/03 00:26:10;;;;;;;68.97;25.23;;;1.90;90.50;;;;;;4967253;28;20034;-67
2022/12/03 00:28:36;;;;;;;63.15;25.60;;;1.70;90.30;;;;;;4973288;28;20066;-67
2022/12/03 00:31:02;;;;;;;62.60;24.08;;;1.70;90.30;;;;;;4966576;28;20029;-66
2022/12/03 00:33:27;;;;;;;59.05;24.27;;;1.70;90.40;;;;;;4969268;28;20962;-66
2022/12/03 00:35:53;;;;;;;59.40;23.55;;;1.60;90.40;;;;;;4973699;28;20683;-67
2022/12/03 00:38:19;;;;;;;60.30;23.42;;;1.70;90.60;;;;;;4974056;28;20488;-67
2022/12/03 00:40:45;;;;;;;63.72;25.25;;;1.70;90.40;;;;;;4966209;28;20038;-67
2022/12/03 00:43:10;;;;;;;69.50;27.25;;;1.70;90.40;;;;;;4967809;28;20030;-66
2022/12/03 00:45:36;;;;;;;70.28;25.40;;;1.70;90.40;;;;;;4970579;28;20035;-67
2022/12/03 00:48:02;;;;;;;61.10;23.05;;;1.80;90.40;;;;;;4968016;28;20038;-66
2022/12/03 00:50:28;;;;;;;53.72;23.35;;;1.70;90.60;;;;;;4963086;28;20062;-65
2022/12/03 00:52:53;;;;;;;67.00;24.95;;;1.80;90.90;;;;;;4968474;28;20447;-67
2022/12/03 00:55:19;;;;;;;69.47;26.00;;;1.90;90.80;;;;;;4970988;28;20126;-65
2022/12/03 00:57:45;;;;;;;68.38;25.17;;;2.00;90.60;;;;;;4965835;28;20045;-65
2022/12/03 01:00:12;;;;;;;63.85;25.58;;;1.90;90.20;;;;;;4966611;28;20690;-66
2022/12/03 01:02:38;;;;;;;61.60;23.60;;;1.90;90.40;;;;;;4968072;28;20146;-66
2022/12/03 01:05:05;;;;;;;62.55;25.35;;;2.00;90.20;;;;;;4969457;28;20110;-67
2022/12/03 01:07:31;;;;;;;60.88;23.33;;;1.90;90.20;;;;;;4969490;28;20498;-67
2022/12/03 01:09:57;;;;;;;67.45;27.50;;;1.90;89.90;;;;;;4969665;28;20037;-66
2022/12/03 01:12:23;;;;;;;65.43;26.17;;;1.80;90.00;;;;;;4964965;28;20108;-66
2022/12/03 01:14:48;;;;;;;71.32;24.70;;;1.70;90.20;;;;;;4971117;28;20065;-66
2022/12/03 01:17:14;;;;;;;62.50;24.25;;;1.70;90.50;;;;;;4974643;28;20149;-67
2022/12/03 01:19:40;;;;;;;61.25;24.02;;;1.70;90.40;;;;;;4964788;28;20042;-65
2022/12/03 01:22:06;;;;;;;64.05;24.88;;;1.70;90.30;;;;;;4966841;28;20041;-67
2022/12/03 01:24:33;;;;;;;59.72;23.35;;;1.70;90.50;;;;;;4967018;28;20076;-67
2022/12/03 01:26:59;;;;;;;59.00;22.00;;;1.80;90.40;;;;;;4962565;28;20035;-66
2022/12/03 01:29:26;;;;;;;60.65;22.80;;;1.90;90.00;;;;;;4969330;28;20042;-65
2022/12/03 01:34:36;;;;;;;58.10;22.75;;;1.90;89.80;;;;;;4964226;28;20112;-67
2022/12/03 01:37:02;;;;;;;63.00;22.23;;;1.80;89.50;;;;;;4963564;28;20483;-66
2022/12/03 01:39:28;;;;;;;57.30;23.25;;;1.90;89.70;;;;;;4965376;28;20039;-65
2022/12/03 01:41:54;;;;;;;51.88;20.85;;;1.80;89.80;;;;;;4962374;28;20045;-66
2022/12/03 01:44:23;;;;;;;61.40;24.00;;;1.80;90.00;;;;;;4965379;28;20035;-67
2022/12/03 01:46:51;;;;;;;55.95;23.60;;;1.90;90.20;;;;;;4963784;28;20129;-66
2022/12/03 01:49:37;;;;;;;60.97;23.25;;;1.90;89.90;;;;;;4972552;28;20089;-66
2022/12/03 01:52:03;;;;;;;57.40;21.05;;;2.00;89.60;;;;;;4965629;28;20789;-67
2022/12/03 01:54:38;;;;;;;61.00;23.58;;;2.00;89.80;;;;;;4968134;28;20034;-66
2022/12/03 01:57:12;;;;;;;58.60;22.05;;;2.00;89.70;;;;;;4964649;28;20029;-69
2022/12/03 01:59:38;;;;;;;56.45;22.65;;;2.00;89.10;;;;;;4964424;28;20616;-67
2022/12/03 02:02:20;;;;;;;54.38;23.17;;;2.00;89.00;;;;;;4963492;28;20034;-68
2022/12/03 02:04:46;;;;;;;54.90;21.98;;;2.00;89.10;;;;;;4965282;28;20026;-67
2022/12/03 02:07:22;;;;;;;57.97;22.67;;;2.00;88.50;;;;;;4970713;28;20088;-67
2022/12/03 02:09:48;;;;;;;53.15;23.02;;;2.00;88.40;;;;;;4969650;28;20041;-66
2022/12/03 02:12:17;;;;;;;55.95;22.17;;;2.00;87.90;;;;;;4966884;28;20039;-67
2022/12/03 02:14:43;;;;;;;53.70;22.27;;;1.90;88.20;;;;;;4958276;28;20089;-66
2022/12/03 02:17:09;;;;;;;56.88;22.40;;;1.90;88.70;;;;;;4965672;28;20043;-65
2022/12/03 02:19:36;;;;;;;62.08;24.38;;;2.00;89.10;;;;;;4965285;28;20050;-67
2022/12/03 02:22:25;;;;;;;54.97;21.73;;;2.10;89.40;;;;;;4962489;28;20102;-67
2022/12/03 02:25:02;;;;;;;56.05;21.02;;;2.10;88.90;;;;;;4960985;28;20031;-66
2022/12/03 02:27:28;;;;;;;61.03;23.08;;;2.10;88.90;;;;;;4965833;28;20041;-67
2022/12/03 02:29:54;;;;;;;58.40;23.70;;;2.10;89.60;;;;;;4968059;28;20031;-66
2022/12/03 02:32:22;;;;;;;61.65;24.08;;;2.10;88.60;;;;;;4966239;28;20030;-66
2022/12/03 02:34:48;;;;;;;63.95;23.05;;;1.90;88.40;;;;;;4967449;28;20117;-65
2022/12/03 02:37:25;;;;;;;53.38;22.00;;;1.80;88.30;;;;;;4966810;28;20114;-65
2022/12/03 02:39:53;;;;;;;54.13;22.17;;;1.80;88.50;;;;;;4960199;28;20027;-67
2022/12/03 02:42:35;;;;;;;58.28;23.45;;;1.90;88.20;;;;;;4963474;28;20037;-67
2022/12/03 02:45:29;;;;;;;53.40;21.58;;;1.80;87.40;;;;;;4962798;28;20513;-65
2022/12/03 02:48:09;;;;;;;47.83;20.33;;;1.90;87.10;;;;;;4967448;28;20117;-66
2022/12/03 02:50:45;;;;;;;59.08;21.95;;;1.90;87.90;;;;;;4963485;28;20034;-67
2022/12/03 02:53:16;;;;;;;55.22;21.60;;;2.00;89.00;;;;;;4962984;28;20077;-66
2022/12/03 02:55:43;;;;;;;50.67;21.08;;;2.00;87.40;;;;;;4971779;28;20049;-67
2022/12/03 02:58:09;;;;;;;63.10;23.38;;;1.90;87.60;;;;;;4962792;28;20093;-67
2022/12/03 03:00:36;;;;;;;50.65;20.33;;;1.80;88.10;;;;;;4974658;28;20038;-66
2022/12/03 03:03:04;;;;;;;51.20;21.30;;;1.90;88.20;;;;;;4963368;28;20074;-67
2022/12/03 03:05:31;;;;;;;56.72;21.75;;;1.90;88.50;;;;;;4965702;28;20038;-66
2022/12/03 03:07:58;;;;;;;51.55;23.17;;;1.90;87.40;;;;;;4973974;28;20038;-66
2022/12/03 03:10:25;;;;;;;53.92;21.48;;;2.00;88.00;;;;;;4970079;28;20046;-67
2022/12/03 03:12:53;;;;;;;51.58;22.55;;;1.90;87.60;;;;;;4975477;28;20022;-65
2022/12/03 03:15:19;;;;;;;58.08;24.70;;;1.90;87.20;;;;;;4970312;28;20038;-66
2022/12/03 03:17:45;;;;;;;60.13;23.05;;;1.80;87.90;;;;;;4966652;28;20031;-66
2022/12/03 03:20:13;;;;;;;54.63;22.60;;;1.70;87.80;;;;;;4966982;28;20109;-66
2022/12/03 03:22:42;;;;;;;55.38;23.27;;;1.70;88.50;;;;;;4969239;28;20046;-67
2022/12/03 03:25:17;;;;;;;54.90;24.13;;;1.70;88.30;;;;;;4965807;28;20034;-66
2022/12/03 03:27:43;;;;;;;58.35;24.17;;;1.80;88.60;;;;;;4970893;28;20030;-65
2022/12/03 03:30:10;;;;;;;55.60;21.40;;;1.80;88.30;;;;;;4966487;28;20061;-66
2022/12/03 03:32:38;;;;;;;57.55;22.92;;;1.80;88.60;;;;;;4976016;28;20030;-66
2022/12/03 03:35:05;;;;;;;58.67;21.98;;;1.80;88.40;;;;;;4973963;28;20050;-65
2022/12/03 03:37:31;;;;;;;53.42;22.20;;;1.80;88.80;;;;;;4969618;28;20027;-67
2022/12/03 03:39:57;;;;;;;52.60;22.95;;;1.80;87.80;;;;;;4970933;28;20395;-66
2022/12/03 03:42:23;;;;;;;51.78;20.60;;;1.80;87.90;;;;;;4970151;28;20538;-67
2022/12/03 03:44:49;;;;;;;58.83;22.50;;;1.80;87.80;;;;;;4975149;28;20505;-67
2022/12/03 03:47:16;;;;;;;55.05;20.60;;;1.80;87.80;;;;;;4977728;28;20026;-68
2022/12/03 03:49:42;;;;;;;52.53;22.73;;;1.80;87.80;;;;;;4967057;28;20052;-67
2022/12/03 03:52:10;;;;;;;57.03;22.58;;;1.80;88.00;;;;;;4968723;28;20721;-66
2022/12/03 03:54:37;;;;;;;55.05;22.48;;;1.90;88.60;;;;;;4967576;28;20462;-66
2022/12/03 03:57:03;;;;;;;56.63;23.65;;;1.90;88.30;;;;;;4973229;28;20045;-67
2022/12/03 03:59:29;;;;;;;49.03;22.48;;;1.90;88.20;;;;;;4966333;28;21079;-67
2022/12/03 04:01:55;;;;;;;58.47;23.23;;;1.80;88.30;;;;;;4965287;28;20034;-67
2022/12/03 04:04:25;;;;;;;55.50;22.00;;;1.80;87.50;;;;;;4972542;28;20031;-67
2022/12/03 04:06:51;;;;;;;55.33;22.73;;;1.80;88.10;;;;;;4968327;28;20062;-67
2022/12/03 04:09:17;;;;;;;54.40;23.73;;;1.80;87.60;;;;;;4967672;28;20125;-67
2022/12/03 04:14:27;;;;;;;66.57;24.33;;;1.60;89.10;;;;;;4965347;28;20049;-67
2022/12/03 04:16:53;;;;;;;55.17;20.88;;;1.50;89.40;;;;;;4967410;28;20035;-67
2022/12/03 04:19:19;;;;;;;56.40;22.88;;;1.60;89.10;;;;;;4964797;28;20419;-67
2022/12/03 04:24:29;;;;;;;56.15;21.67;;;1.60;88.70;;;;;;4969885;28;20076;-68
2022/12/03 04:29:39;;;;;;;56.42;22.95;;;1.70;87.70;;;;;;4969519;28;20031;-67
2022/12/03 04:37:33;;;;;;;61.40;22.35;;;1.60;89.10;;;;;;4967383;28;20122;-68
2022/12/03 04:39:59;;;;;;;50.70;21.52;;;1.60;88.00;;;;;;4967782;28;20403;-68
2022/12/03 04:42:25;;;;;;;60.97;23.27;;;1.50;88.60;;;;;;4975105;28;20628;-67
2022/12/03 04:44:50;;;;;;;59.17;22.40;;;1.50;89.30;;;;;;4965318;28;20031;-67
2022/12/03 04:47:19;;;;;;;52.85;20.80;;;1.50;89.50;;;;;;4968356;28;20038;-67
2022/12/03 04:49:47;;;;;;;58.35;23.85;;;1.40;89.00;;;;;;4973613;28;20482;-68
2022/12/03 04:52:16;;;;;;;54.67;21.85;;;1.50;89.30;;;;;;4963212;28;20030;-68
2022/12/03 04:54:42;;;;;;;50.17;22.75;;;1.60;88.20;;;;;;4966345;28;20046;-67
2022/12/03 04:57:08;;;;;;;57.35;22.55;;;1.60;87.80;;;;;;4964968;28;20039;-67
2022/12/03 04:59:35;;;;;;;54.63;24.08;;;1.60;87.80;;;;;;4969529;28;20466;-69
2022/12/03 05:02:02;;;;;;;51.72;20.90;;;1.60;88.20;;;;;;4968108;28;20494;-67
2022/12/03 05:04:27;;;;;;;53.28;22.40;;;1.70;88.10;;;;;;4964873;28;20490;-67
2022/12/03 05:06:53;;;;;;;51.97;22.33;;;1.80;88.00;;;;;;4968473;28;20066;-67
2022/12/03 05:09:19;;;;;;;53.63;23.75;;;1.80;88.20;;;;;;4967086;28;20034;-68
2022/12/03 05:11:45;;;;;;;59.50;22.88;;;1.70;87.50;;;;;;4964572;28;20035;-67
2022/12/03 05:14:11;;;;;;;57.83;23.17;;;1.70;87.60;;;;;;4963974;28;20483;-67
2022/12/03 05:16:37;;;;;;;56.08;22.35;;;1.70;87.90;;;;;;4971053;28;20546;-66
2022/12/03 05:19:04;;;;;;;51.15;21.17;;;1.80;87.60;;;;;;4972770;28;20042;-68
2022/12/03 05:21:30;;;;;;;51.63;20.88;;;1.70;87.70;;;;;;4968444;28;20176;-67
2022/12/03 05:23:56;;;;;;;54.50;22.33;;;1.80;88.40;;;;;;4967730;28;20038;-67
2022/12/03 05:26:22;;;;;;;51.80;22.00;;;1.70;87.40;;;;;;4969666;28;20109;-67
2022/12/03 05:28:47;;;;;;;48.60;22.05;;;1.70;87.20;;;;;;4965216;28;21031;-67
2022/12/03 05:31:13;;;;;;;49.85;21.25;;;1.70;87.60;;;;;;4966901;28;20050;-67
2022/12/03 05:33:39;;;;;;;52.05;21.50;;;1.80;88.00;;;;;;4972149;28;20041;-67
2022/12/03 05:36:05;;;;;;;51.35;21.88;;;1.80;87.80;;;;;;4964439;28;20035;-65
2022/12/03 05:38:31;;;;;;;50.70;20.92;;;1.90;87.80;;;;;;4970841;28;20787;-66
2022/12/03 05:40:56;;;;;;;47.20;21.30;;;1.90;87.30;;;;;;4965500;28;20023;-67
2022/12/03 05:43:23;;;;;;;50.65;22.20;;;1.90;86.70;;;;;;4970221;28;20038;-67
2022/12/03 05:45:48;;;;;;;52.25;22.67;;;1.90;87.00;;;;;;4966810;28;20151;-66
2022/12/03 05:48:15;;;;;;;51.38;22.73;;;1.90;87.10;;;;;;4965679;28;20541;-67
2022/12/03 05:50:43;;;;;;;50.42;21.60;;;1.80;86.60;;;;;;4962344;28;20035;-67
2022/12/03 05:53:16;;;;;;;43.97;19.50;;;1.80;86.80;;;;;;4971056;28;20050;-67
2022/12/03 05:55:42;;;;;;;52.75;22.30;;;1.80;87.20;;;;;;4966099;28;20034;-67
2022/12/03 05:58:08;;;;;;;43.65;20.50;;;1.70;86.10;;;;;;4960056;28;20093;-66
2022/12/03 06:00:37;;;;;;;51.95;21.58;;;1.70;87.00;;;;;;4964589;28;20030;-67
2022/12/03 06:03:06;;;;;;;57.38;21.85;;;1.60;87.30;;;;;;4962616;28;20883;-66
2022/12/03 06:05:33;;;;;;;48.72;20.50;;;1.60;87.50;;;;;;4962420;28;20026;-66
2022/12/03 06:07:59;;;;;;;50.30;20.70;;;1.70;87.70;;;;;;4962094;28;20114;-67
2022/12/03 06:10:27;;;;;;;48.28;22.58;;;1.70;88.00;;;;;;4961474;28;20903;-68
2022/12/03 06:12:53;;;;;;;43.42;20.45;;;1.50;88.70;;;;;;4963484;28;20041;-67
2022/12/03 06:15:20;;;;;;;52.40;22.75;;;1.50;89.10;;;;;;4961687;28;20492;-67
2022/12/03 06:17:46;;;;;;;51.78;21.33;;;1.60;90.00;;;;;;4958803;28;20516;-66
2022/12/03 06:20:14;;;;;;;50.72;22.15;;;1.70;89.00;;;;;;4966166;28;20033;-67
2022/12/03 06:22:40;;;;;;;47.75;19.98;;;1.70;89.60;;;;;;4963246;28;20039;-65
2022/12/03 06:25:07;;;;;;;50.47;22.10;;;1.70;89.70;;;;;;4963356;28;20034;-66
2022/12/03 06:27:33;;;;;;;48.88;21.00;;;1.70;90.00;;;;;;4956787;28;20693;-65
2022/12/03 06:29:58;;;;;;;48.10;21.98;;;1.60;90.20;;;;;;4963772;28;20038;-66
2022/12/03 06:32:24;;;;;;;48.45;22.00;;;1.70;90.10;;;;;;4962627;28;20042;-67
2022/12/03 06:34:50;;;;;;;52.97;22.05;;;1.80;90.30;;;;;;4964288;28;20037;-67
2022/12/03 06:37:16;;;;;;;50.13;21.20;;;1.80;90.40;;;;;;4963421;28;20045;-66
2022/12/03 06:39:41;;;;;;;52.40;21.80;;;1.80;90.40;;;;;;4963624;28;20157;-67
2022/12/03 06:42:07;;;;;;;49.92;20.98;;;1.60;90.40;;;;;;4955980;28;20027;-67
2022/12/03 06:44:33;;;;;;;48.30;21.50;;;1.70;90.60;;;;;;4962310;28;20026;-66
2022/12/03 06:46:59;;;;;;;50.20;22.00;;;1.70;90.70;;;;;;4956657;28;20038;-66
2022/12/03 06:49:24;;;;;;;52.20;22.30;;;1.80;90.60;;;;;;4968579;28;20039;-65
2022/12/03 06:51:50;;;;;;;54.47;22.83;;;1.80;90.50;;;;;;4963315;28;20678;-67
2022/12/03 06:54:16;;;;;;;59.40;23.50;;;1.80;90.40;;;;;;4961393;28;20023;-67
2022/12/03 06:56:42;;;;;;;52.22;23.50;;;1.70;90.40;;;;;;4961662;28;20126;-68
2022/12/03 06:59:07;;;;;;;57.70;24.30;;;1.70;90.40;;;;;;4963830;28;20491;-66
2022/12/03 07:01:33;;;;;;;62.75;24.40;;;1.70;90.70;;;;;;4962934;28;20652;-67
2022/12/03 07:03:59;;;;;;;55.17;23.05;;;1.60;90.60;;;;;;4962747;28;20046;-68
2022/12/03 07:06:25;;;;;;;57.83;22.63;;;1.50;90.50;;;;;;4959550;28;20133;-66
2022/12/03 07:08:51;;;;;;;48.60;21.83;;;1.50;90.40;;;;;;4960250;28;20031;-68
2022/12/03 07:11:38;;;;;;;56.90;22.33;;;1.50;90.50;;;;;;4962588;28;20034;-66
2022/12/03 07:14:05;;;;;;;51.28;22.55;;;1.60;90.50;;;;;;4960689;28;20023;-68
2022/12/03 07:16:31;;;;;;;48.83;22.00;;;1.70;90.60;;;;;;4964247;28;20035;-66
2022/12/03 07:18:57;;;;;;;47.13;21.83;;;1.80;90.50;;;;;;4968777;28;20035;-67
2022/12/03 07:21:23;;;;;;;56.75;22.65;;;1.80;90.30;;;;;;4964435;28;20042;-67
2022/12/03 07:23:49;;;;;;;47.92;22.13;;;1.90;90.30;;;;;;4961820;28;20027;-67
2022/12/03 07:26:14;;;;;;;48.90;22.35;;;1.90;90.50;;;;;;4975955;28;20023;-66
2022/12/03 07:28:40;;;;;;;53.85;24.20;;;1.90;90.40;;;;;;4960050;28;20101;-67
2022/12/03 07:31:06;;;;;;;55.97;23.52;;;2.00;90.30;;;;;;4964739;28;20512;-74
2022/12/03 07:33:32;;;;;;;49.88;20.98;;;1.90;90.40;;;;;;4963811;28;20046;-67
2022/12/03 07:35:58;;;;;;;58.25;24.25;;;1.90;90.40;;;;;;4959003;28;20454;-66
2022/12/03 07:38:24;;;;;;;52.33;23.50;;;1.90;90.60;;;;;;4963649;28;20526;-67
2022/12/03 07:40:49;;;;;;;50.13;22.15;;;1.80;90.40;;;;;;4964152;28;20462;-66
2022/12/03 07:43:16;;;;;;;55.80;22.27;;;1.80;90.60;;;;;;4961952;28;20030;-67
2022/12/03 07:45:41;;;;;;;54.25;23.45;;;1.80;90.70;;;;;;4963180;28;20035;-68
2022/12/03 07:48:07;;;;;;;56.90;22.85;;;1.90;90.60;;;;;;4970426;28;20045;-67
2022/12/03 07:50:33;;;;;;;56.17;23.63;;;1.90;90.80;;;;;;4963783;28;20045;-67
2022/12/03 07:52:59;;;;;;;52.90;22.92;;;1.90;90.80;;;;;;4962761;28;20034;-67
2022/12/03 07:55:25;;;;;;;55.42;24.63;;;1.90;90.80;;;;;;4968512;28;20030;-67
2022/12/03 07:57:51;;;;;;;54.03;22.80;;;1.90;90.90;;;;;;4966020;28;20031;-67
2022/12/03 08:00:18;;;;;;;54.38;24.15;;;1.90;90.80;;;;;;4964680;28;20030;-66
2022/12/03 08:02:44;;;;;;;54.33;25.23;;;1.90;90.40;;;;;;4969426;28;20407;-66
2022/12/03 08:05:10;;;;;;;64.85;25.27;;;2.00;90.60;;;;;;4965035;28;20030;-65
2022/12/03 08:07:36;;;;;;;52.10;22.67;;;2.00;90.60;;;;;;4968553;28;20073;-67
2022/12/03 08:10:04;;;;;;;56.63;23.23;;;2.00;90.50;;;;;;4969649;28;20565;-66
2022/12/03 08:12:41;;;;;;;59.33;24.77;;;2.00;90.60;;;;;;4964337;28;20563;-66
2022/12/03 08:15:14;;;;;;;56.88;24.15;;;2.00;90.40;;;;;;4964279;28;20106;-67
2022/12/03 08:17:41;;;;;;;61.83;24.65;;;2.00;90.50;;;;;;4964043;28;20043;-66
2022/12/03 08:20:14;;;;;;;62.78;25.08;;;2.00;90.20;;;;;;4963726;28;20158;-65
2022/12/03 08:22:41;;;;;;;58.40;25.30;;;1.90;90.40;;;;;;4962543;28;20031;-65
2022/12/03 08:25:20;;;;;;;62.55;24.60;;;1.80;90.40;;;;;;4964227;28;20065;-65
2022/12/03 08:27:46;;;;;;;52.03;23.20;;;1.90;90.60;;;;;;4962535;28;20030;-66
2022/12/03 08:30:14;;;;;;;58.67;24.35;;;1.90;90.60;;;;;;4963205;28;21000;-65
2022/12/03 08:32:41;;;;;;;66.72;27.13;;;1.90;90.40;;;;;;4962700;28;20700;-66
2022/12/03 08:35:10;;;;;;;58.42;24.42;;;1.90;90.50;;;;;;4965747;28;20027;-66
2022/12/03 08:37:36;;;;;;;52.67;22.83;;;1.90;90.70;;;;;;4964843;28;20074;-66
2022/12/03 08:40:21;;;;;;;63.75;24.45;;;1.90;90.80;;;;;;4962572;28;20070;-68
2022/12/03 08:42:47;;;;;;;55.38;23.15;;;1.90;90.40;;;;;;4963497;28;20035;-65
2022/12/03 08:45:31;;;;;;;54.63;24.45;;;1.80;90.60;;;;;;4963931;28;20073;-65
2022/12/03 08:48:00;;;;;;;58.72;24.92;;;1.80;90.80;;;;;;4970087;28;20058;-67
2022/12/03 08:50:32;;;;;;;63.40;24.33;;;1.90;90.70;;;;;;4962227;28;20058;-68
2022/12/03 08:53:13;;;;;;;52.97;21.98;;;1.80;90.50;;;;;;4963847;28;20039;-66
2022/12/03 08:55:45;;;;;;;56.30;23.38;;;1.90;90.60;;;;;;4963350;28;20039;-65
2022/12/03 08:58:41;;;;;;;60.40;23.33;;;1.90;90.60;;;;;;4961423;28;20521;-66
2022/12/03 09:01:07;;;;;;;56.97;24.17;;;1.90;90.60;;;;;;4961180;28;20073;-66
2022/12/03 09:03:33;;;;;;;57.13;23.52;;;1.80;90.40;;;;;;4964868;28;20852;-67
2022/12/03 09:05:59;;;;;;;55.70;22.75;;;1.80;90.50;;;;;;4965652;28;20038;-67
2022/12/03 09:08:25;;;;;;;56.88;23.83;;;1.80;90.30;;;;;;4963310;28;20042;-66
2022/12/03 09:10:50;;;;;;;60.55;24.05;;;1.90;90.50;;;;;;4963065;28;20034;-66
2022/12/03 09:13:16;;;;;;;49.50;21.08;;;1.80;90.20;;;;;;4963112;28;20089;-66
2022/12/03 09:15:42;;;;;;;52.60;21.98;;;1.90;90.50;;;;;;4956839;28;20043;-66
2022/12/03 09:18:08;;;;;;;57.78;22.98;;;1.90;90.50;;;;;;4963685;28;20118;-67
2022/12/03 09:20:33;;;;;;;55.05;22.65;;;2.10;90.60;;;;;;4960408;28;20633;-66
2022/12/03 09:22:59;;;;;;;59.00;22.65;;;2.10;90.30;;;;;;4963186;28;20062;-66
2022/12/03 09:25:25;;;;;;;57.38;23.95;;;2.20;90.00;;;;;;4968627;28;20035;-66
2022/12/03 09:27:51;;;;;;;53.22;21.20;;;2.30;90.30;;;;;;4962801;28;20563;-65
2022/12/03 09:30:17;;;;;;;51.63;21.92;;;2.30;89.40;;;;;;4963899;28;20023;-67
2022/12/03 09:32:42;;;;;;;52.97;23.08;;;2.30;88.50;;;;;;4963325;28;20888;-66
2022/12/03 09:35:08;;;;;;;54.35;22.83;;;2.10;89.30;;;;;;4962459;28;20758;-67
2022/12/03 09:37:34;;;;;;;51.55;20.92;;;2.10;90.00;;;;;;4962181;28;20046;-67
2022/12/03 09:40:00;;;;;;;51.65;22.65;;;2.00;89.60;;;;;;4972127;28;20043;-66
2022/12/03 09:42:26;;;;;;;52.88;22.48;;;2.00;90.20;;;;;;4960861;28;20045;-66
2022/12/03 09:44:52;;;;;;;49.97;22.52;;;2.10;90.10;;;;;;4962901;28;20027;-68
2022/12/03 09:47:18;;;;;;;52.97;22.45;;;2.10;90.40;;;;;;4952622;28;20053;-65
2022/12/03 09:49:44;;;;;;;54.58;21.98;;;2.20;90.60;;;;;;4964967;28;20031;-66
2022/12/03 09:52:18;;;;;;;49.67;23.52;;;2.20;90.20;;;;;;4960585;28;20043;-66
2022/12/03 09:54:44;;;;;;;50.35;22.27;;;2.30;90.20;;;;;;4959067;28;20113;-66
2022/12/03 09:57:13;;;;;;;52.70;21.77;;;2.40;90.00;;;;;;4962296;28;20225;-66
2022/12/03 09:59:39;;;;;;;55.40;23.73;;;2.50;90.00;;;;;;4962161;28;20532;-66
2022/12/03 10:02:20;;;;;;;64.07;24.08;;;2.50;88.80;;;;;;4962467;28;20027;-66
2022/12/03 10:04:45;;;;;;;55.22;22.00;;;2.50;89.60;;;;;;4960394;28;20471;-66
2022/12/03 10:07:11;;;;;;;59.15;24.42;;;2.50;89.40;;;;;;4961646;28;20108;-64
2022/12/03 10:09:37;;;;;;;55.47;23.73;;;2.60;89.90;;;;;;4964789;28;20054;-66
2022/12/03 10:12:03;;;;;;;55.65;23.33;;;2.70;90.00;;;;;;4961508;28;20573;-69
2022/12/03 10:14:29;;;;;;;51.00;21.35;;;2.70;89.30;;;;;;4976768;28;20041;-67
2022/12/03 10:16:55;;;;;;;51.08;22.77;;;2.60;89.00;;;;;;4959934;28;20034;-67
2022/12/03 10:19:27;;;;;;;48.55;20.50;;;2.60;89.60;;;;;;4961902;28;20136;-66
2022/12/03 10:21:54;;;;;;;55.50;22.88;;;2.60;89.70;;;;;;4964697;28;20835;-65
2022/12/03 10:24:28;;;;;;;57.72;23.55;;;2.60;90.00;;;;;;4961209;28;20494;-68
2022/12/03 10:27:22;;;;;;;52.28;22.85;;;2.50;89.60;;;;;;4958099;28;20045;-67
2022/12/03 10:29:59;;;;;;;59.22;23.88;;;2.40;90.20;;;;;;4954159;28;20038;-67
2022/12/03 10:32:41;;;;;;;53.35;22.17;;;2.40;90.30;;;;;;4962994;28;20145;-67
2022/12/03 10:35:18;;;;;;;57.33;21.60;;;2.40;90.50;;;;;;4959142;28;20495;-66
2022/12/03 10:38:05;;;;;;;52.22;22.55;;;2.40;90.50;;;;;;4960822;28;20034;-68
2022/12/03 10:40:32;;;;;;;;;;;2.40;90.30;;;;;;4964468;28;20026;-67
2022/12/03 10:43:13;;;;;;;;;;;2.40;90.30;;;;;;4965203;28;20319;-67
2022/12/03 10:45:40;;;;;;;51.53;20.55;;;2.50;90.60;;;;;;4962494;28;20595;-67
2022/12/03 10:48:26;;;;;;;51.33;21.80;;;2.50;90.10;;;;;;4961848;28;20063;-67
2022/12/03 10:51:05;;;;;;;53.30;23.85;;;2.50;90.30;;;;;;4959548;28;20055;-67
2022/12/03 10:53:36;;;;;;;57.20;23.85;;;2.40;90.00;;;;;;4959138;28;20039;-67
2022/12/03 10:56:07;;;;;;;56.95;24.25;;;2.40;90.10;;;;;;4961853;28;20110;-67
2022/12/03 10:58:40;;;;;;;56.63;22.75;;;2.50;90.30;;;;;;4960522;28;20036;-67
2022/12/03 11:01:16;;;;;;;50.00;22.60;;;2.50;90.20;;;;;;4961536;28;20101;-67
2022/12/03 11:03:43;;;;;;;52.92;22.33;;;2.40;90.20;;;;;;4961906;28;20031;-66
2022/12/03 11:06:21;;;;;;;58.35;22.20;;;2.50;90.40;;;;;;4958500;28;20019;-66
2022/12/03 11:08:49;;;;;;;56.63;23.02;;;2.50;90.50;;;;;;4958665;28;20042;-69
2022/12/03 11:11:17;;;;;;;55.22;22.95;;;2.50;90.20;;;;;;4960304;28;20041;-67
2022/12/03 11:13:55;;;;;;;59.92;22.42;;;2.40;89.50;;;;;;4960555;28;20478;-68
2022/12/03 11:16:39;;;;;;;50.10;22.60;;;2.40;90.30;;;;;;4960446;28;20131;-68
2022/12/03 11:19:11;;;;;;;57.13;22.90;;;2.50;90.40;;;;;;4961514;28;20090;-69
2022/12/03 11:22:05;;;;;;;45.78;20.35;;;2.50;90.40;;;;;;4961254;28;20027;-68
2022/12/03 11:24:33;;;;;;;57.90;22.65;;;2.50;90.10;;;;;;4960728;28;20450;-67
2022/12/03 11:26:59;;;;;;;49.58;20.98;;;2.50;90.00;;;;;;4958023;28;20070;-68
2022/12/03 11:29:46;;;;;;;58.28;22.33;;;2.50;89.70;;;;;;4964732;28;20030;-67
2022/12/03 11:32:36;;;;;;;51.00;20.48;;;2.60;89.60;;;;;;4963842;28;20062;-67
2022/12/03 11:35:13;;;;;;;59.15;22.90;;;2.60;89.80;;;;;;4964605;28;20039;-67
2022/12/03 11:37:40;;;;;;;59.25;21.65;;;2.60;89.80;;;;;;4967486;28;20038;-68
2022/12/03 11:40:18;;;;;;;59.17;22.63;;;2.60;89.80;;;;;;4966829;28;20031;-67
2022/12/03 11:42:45;;;;;;;57.83;23.63;;;2.60;89.20;;;;;;4960860;28;20078;-67
2022/12/03 11:45:37;;;;;;;58.42;22.98;;;2.60;89.40;;;;;;4964615;28;20031;-67
2022/12/03 11:48:11;;;;;;;57.45;22.23;;;2.60;89.40;;;;;;4961772;28;20039;-68
2022/12/03 11:50:43;;;;;;;57.15;21.55;;;2.60;89.50;;;;;;4960348;28;20110;-67
2022/12/03 11:53:22;;;;;;;52.38;22.00;;;2.60;89.70;;;;;;4965971;28;20034;-68
2022/12/03 11:56:01;;;;;;;50.75;20.88;;;2.60;90.00;;;;;;4966011;28;20045;-68
2022/12/03 11:58:29;;;;;;;58.42;22.73;;;2.70;89.60;;;;;;4962326;28;20043;-67
2022/12/03 12:00:57;;;;;;;52.78;21.63;;;2.60;89.40;;;;;;4963168;28;20990;-69
2022/12/03 12:03:45;;;;;;;49.70;19.80;;;2.60;89.70;;;;;;4964595;28;20038;-69
2022/12/03 12:06:12;;;;;;;51.78;20.63;;;2.60;89.40;;;;;;4964822;28;20052;-66
2022/12/03 12:08:54;;;;;;;61.33;23.35;;;2.50;89.10;;;;;;4964123;28;20085;-66
2022/12/03 12:11:28;;;;;;;57.05;22.00;;;2.40;89.90;;;;;;4967218;28;20035;-65
2022/12/03 12:13:55;;;;;;;51.10;20.60;;;2.50;89.80;;;;;;4964339;28;20042;-74
2022/12/03 12:16:36;;;;;;;54.15;21.23;;;2.50;90.10;;;;;;4962517;28;20097;-66
2022/12/03 12:19:33;;;;;;;54.85;21.10;;;2.50;90.20;;;;;;4963165;28;20046;-68
2022/12/03 12:22:17;;;;;;;52.80;21.33;;;2.60;90.30;;;;;;4964424;28;20035;-64
2022/12/03 12:24:50;;;;;;;58.00;22.00;;;2.70;90.10;;;;;;4959973;28;20037;-65
2022/12/03 12:27:44;;;;;;;54.50;20.85;;;2.60;89.80;;;;;;4968848;28;20034;-66
2022/12/03 12:30:18;;;;;;;51.63;21.08;;;2.50;89.80;;;;;;4966933;28;20035;-65
2022/12/03 12:32:49;;;;;;;54.83;20.85;;;2.50;90.00;;;;;;4977073;28;20073;-66
2022/12/03 12:35:18;;;;;;;49.50;21.17;;;2.60;90.00;;;;;;4970216;28;20037;-63
2022/12/03 12:37:52;;;;;;;56.83;21.20;;;2.50;89.70;;;;;;4964977;28;20038;-65
2022/12/03 12:40:21;;;;;;;57.58;20.85;;;2.40;90.00;;;;;;4965941;28;20031;-68
2022/12/03 12:43:03;;;;;;;64.47;23.00;;;2.50;90.10;;;;;;4964779;28;20030;-65
2022/12/03 12:45:41;;;;;;;51.45;20.45;;;2.40;90.10;;;;;;4962563;28;20743;-66
2022/12/03 12:48:26;;;;;;;52.33;20.63;;;2.40;90.20;;;;;;4963704;28;20418;-66
2022/12/03 12:51:14;;;;;;;51.83;20.37;;;2.50;90.30;;;;;;4962319;28;20117;-65
2022/12/03 12:53:44;;;;;;;57.30;21.50;;;2.50;90.00;;;;;;4961901;28;20045;-65
2022/12/03 12:56:23;;;;;;;61.50;21.02;;;2.40;90.10;;;;;;4965802;28;20578;-65
2022/12/03 12:58:49;;;;;;;59.58;21.92;;;2.50;90.20;;;;;;4960914;28;20031;-67
2022/12/03 13:01:28;;;;;;;53.38;21.20;;;2.50;90.30;;;;;;4964801;28;20146;-65
2022/12/03 13:03:54;;;;;;;51.67;20.85;;;2.60;90.30;;;;;;4963259;28;20027;-64
2022/12/03 13:06:30;;;;;;;64.20;21.98;;;2.60;90.50;;;;;;4965570;28;20031;-64